createdAt,value
2018-12-26T00:00:01.595Z,0
2018-12-26T00:01:11.197Z,0
2018-12-26T00:02:20.774Z,0
2018-12-26T00:03:30.862Z,0
2018-12-26T00:04:40.951Z,0
2018-12-26T00:05:51.211Z,0
2018-12-26T00:07:01.259Z,0
2018-12-26T00:08:13.658Z,0
2018-12-26T00:09:23.805Z,0
2018-12-26T00:10:33.881Z,0
2018-12-26T00:11:43.964Z,0
2018-12-26T00:12:54.036Z,0
2018-12-26T00:14:04.118Z,0
2018-12-26T00:15:14.775Z,0
2018-12-26T00:16:24.601Z,0
2018-12-26T00:17:34.450Z,0
2018-12-26T00:18:44.955Z,0
2018-12-26T00:19:55.430Z,0
2018-12-26T00:21:05.507Z,0
2018-12-26T00:22:15.586Z,0
2018-12-26T00:23:25.405Z,0
2018-12-26T00:24:35.203Z,0
2018-12-26T00:25:45.013Z,0
2018-12-26T00:26:55.058Z,0
2018-12-26T00:28:04.858Z,0
2018-12-26T00:29:14.687Z,0
2018-12-26T00:30:24.766Z,0
2018-12-26T00:31:34.844Z,0
2018-12-26T00:32:45.148Z,0
2018-12-26T00:33:55.259Z,0
2018-12-26T00:35:06.709Z,0
2018-12-26T00:36:16.811Z,0
2018-12-26T00:37:27.038Z,0
2018-12-26T00:38:37.098Z,0
2018-12-26T00:39:48.046Z,0
2018-12-26T00:40:58.298Z,0
2018-12-26T00:42:09.027Z,0
2018-12-26T00:43:19.175Z,0
2018-12-26T00:44:29.242Z,0
2018-12-26T00:45:39.317Z,0
2018-12-26T00:46:49.440Z,0
2018-12-26T00:47:59.517Z,0
2018-12-26T00:49:09.575Z,0
2018-12-26T00:50:19.142Z,0
2018-12-26T00:51:29.197Z,0
2018-12-26T00:52:39.263Z,0
2018-12-26T00:53:49.335Z,0
2018-12-26T00:54:59.411Z,0
2018-12-26T00:56:17.580Z,0
2018-12-26T00:57:27.650Z,0
2018-12-26T00:58:37.687Z,0
2018-12-26T00:59:47.758Z,0
2018-12-26T01:00:57.856Z,0
2018-12-26T01:02:07.646Z,0
2018-12-26T01:03:17.701Z,0
2018-12-26T01:04:27.777Z,0
2018-12-26T01:05:38.052Z,0
2018-12-26T01:06:48.112Z,0
2018-12-26T01:07:58.195Z,0
2018-12-26T01:09:07.789Z,0
2018-12-26T01:10:17.844Z,0
2018-12-26T01:11:27.892Z,0
2018-12-26T01:12:37.964Z,0
2018-12-26T01:13:48.020Z,0
2018-12-26T01:14:58.142Z,0
2018-12-26T01:16:08.650Z,0
2018-12-26T01:17:18.446Z,0
2018-12-26T01:18:28.257Z,0
2018-12-26T01:19:37.809Z,0
2018-12-26T01:20:47.849Z,0
2018-12-26T01:21:57.385Z,0
2018-12-26T01:23:08.838Z,0
2018-12-26T01:24:18.646Z,0
2018-12-26T01:25:28.701Z,0
2018-12-26T01:26:38.035Z,0
2018-12-26T01:27:48.108Z,0
2018-12-26T01:28:57.909Z,0
2018-12-26T01:30:09.599Z,0
2018-12-26T01:31:19.130Z,0
2018-12-26T01:32:28.927Z,0
2018-12-26T01:33:39.062Z,0
2018-12-26T01:34:49.181Z,0
2018-12-26T01:36:00.729Z,0
2018-12-26T01:37:10.789Z,0
2018-12-26T01:38:20.645Z,0
2018-12-26T01:39:30.687Z,0
2018-12-26T01:40:40.729Z,0
2018-12-26T01:41:50.285Z,0
2018-12-26T01:43:00.428Z,0
2018-12-26T01:44:10.475Z,0
2018-12-26T01:45:20.531Z,0
2018-12-26T01:46:30.340Z,0
2018-12-26T01:47:40.138Z,0
2018-12-26T01:48:50.312Z,0
2018-12-26T01:50:00.420Z,0
2018-12-26T01:51:10.477Z,0
2018-12-26T01:52:20.526Z,0
2018-12-26T01:53:30.669Z,0
2018-12-26T01:54:40.786Z,0
2018-12-26T01:55:50.861Z,0
2018-12-26T01:57:00.912Z,0
2018-12-26T01:58:10.956Z,0
2018-12-26T01:59:21.027Z,0
2018-12-26T02:00:31.100Z,0
2018-12-26T02:01:41.286Z,0
2018-12-26T02:02:51.343Z,0
2018-12-26T02:04:01.143Z,0
2018-12-26T02:05:11.197Z,0
2018-12-26T02:06:21.015Z,0
2018-12-26T02:07:31.135Z,0
2018-12-26T02:08:41.198Z,0
2018-12-26T02:09:51.058Z,0
2018-12-26T02:11:01.380Z,0
2018-12-26T02:12:11.206Z,0
2018-12-26T02:13:20.837Z,0
2018-12-26T02:14:30.917Z,0
2018-12-26T02:15:40.946Z,0
2018-12-26T02:16:50.770Z,0
2018-12-26T02:18:00.835Z,0
2018-12-26T02:19:11.825Z,0
2018-12-26T02:20:21.876Z,0
2018-12-26T02:21:31.923Z,0
2018-12-26T02:22:41.977Z,0
2018-12-26T02:23:51.795Z,0
2018-12-26T02:25:01.620Z,0
2018-12-26T02:26:11.685Z,0
2018-12-26T02:27:21.730Z,0
2018-12-26T02:28:31.787Z,0
2018-12-26T02:29:41.838Z,0
2018-12-26T02:30:51.970Z,0
2018-12-26T02:32:01.915Z,0
2018-12-26T02:33:11.716Z,0
2018-12-26T02:34:21.516Z,0
2018-12-26T02:35:31.598Z,0
2018-12-26T02:36:41.661Z,0
2018-12-26T02:37:51.456Z,0
2018-12-26T02:39:01.519Z,0
2018-12-26T02:40:11.328Z,0
2018-12-26T02:41:21.383Z,0
2018-12-26T02:42:31.507Z,0
2018-12-26T02:43:41.556Z,0
2018-12-26T02:44:51.402Z,0
2018-12-26T02:46:01.453Z,0
2018-12-26T02:47:11.495Z,0
2018-12-26T02:48:21.084Z,0
2018-12-26T02:49:30.891Z,0
2018-12-26T02:50:40.941Z,0
2018-12-26T02:51:51.005Z,0
2018-12-26T02:53:01.376Z,0
2018-12-26T02:54:11.494Z,0
2018-12-26T02:55:21.299Z,0
2018-12-26T02:56:30.846Z,0
2018-12-26T02:57:40.907Z,0
2018-12-26T02:58:50.967Z,0
2018-12-26T03:00:00.784Z,0
2018-12-26T03:01:11.539Z,0
2018-12-26T03:02:21.378Z,0
2018-12-26T03:35:07.578Z,0
2018-12-26T03:36:17.635Z,0
2018-12-26T03:37:27.718Z,0
2018-12-26T03:38:37.946Z,0
2018-12-26T03:39:48.060Z,0
2018-12-26T03:40:58.153Z,0
2018-12-26T03:42:08.224Z,0
2018-12-26T03:43:18.275Z,0
2018-12-26T03:44:28.065Z,0
2018-12-26T03:45:37.848Z,0
2018-12-26T03:46:47.794Z,0
2018-12-26T03:47:57.857Z,0
2018-12-26T03:49:09.115Z,0
2018-12-26T03:50:19.163Z,0
2018-12-26T03:51:28.978Z,0
2018-12-26T03:52:39.083Z,0
2018-12-26T03:53:48.871Z,0
2018-12-26T03:54:58.939Z,0
2018-12-26T03:56:09.105Z,0
2018-12-26T03:57:19.186Z,0
2018-12-26T03:58:29.313Z,0
2018-12-26T03:59:39.374Z,0
2018-12-26T04:00:49.565Z,0
2018-12-26T04:01:59.392Z,0
2018-12-26T04:03:09.478Z,0
2018-12-26T04:04:19.336Z,0
2018-12-26T04:05:29.132Z,0
2018-12-26T04:06:39.004Z,0
2018-12-26T04:07:49.051Z,0
2018-12-26T04:08:58.632Z,0
2018-12-26T04:10:08.439Z,0
2018-12-26T04:11:18.251Z,0
2018-12-26T04:12:28.049Z,0
2018-12-26T04:13:37.981Z,0
2018-12-26T04:14:47.824Z,0
2018-12-26T04:15:57.940Z,0
2018-12-26T04:17:08.378Z,0
2018-12-26T04:18:17.915Z,0
2018-12-26T04:19:27.991Z,0
2018-12-26T04:20:37.783Z,0
2018-12-26T04:21:47.622Z,0
2018-12-26T04:22:57.686Z,0
2018-12-26T04:24:07.489Z,0
2018-12-26T04:25:17.536Z,0
2018-12-26T04:26:27.594Z,0
2018-12-26T04:27:37.695Z,0
2018-12-26T04:28:47.757Z,0
2018-12-26T04:29:57.600Z,0
2018-12-26T04:31:07.651Z,0
2018-12-26T04:32:17.698Z,0
2018-12-26T04:33:27.482Z,0
2018-12-26T04:34:37.539Z,0
2018-12-26T04:35:47.584Z,0
2018-12-26T04:36:57.646Z,0
2018-12-26T04:38:07.707Z,0
2018-12-26T04:39:17.754Z,0
2018-12-26T04:40:27.930Z,0
2018-12-26T04:41:37.761Z,0
2018-12-26T04:42:47.815Z,0
2018-12-26T04:43:58.714Z,0
2018-12-26T04:45:08.319Z,0
2018-12-26T04:46:18.487Z,0
2018-12-26T04:47:28.577Z,0
2018-12-26T04:48:38.622Z,0
2018-12-26T04:49:48.151Z,0
2018-12-26T04:50:58.257Z,0
2018-12-26T04:52:08.306Z,0
2018-12-26T04:53:18.351Z,0
2018-12-26T04:54:28.410Z,0
2018-12-26T04:55:38.481Z,0
2018-12-26T04:56:48.323Z,0
2018-12-26T04:57:58.152Z,0
2018-12-26T04:59:08.445Z,0
2018-12-26T05:00:19.039Z,0
2018-12-26T05:01:28.839Z,0
2018-12-26T05:02:38.969Z,0
2018-12-26T05:03:49.160Z,0
2018-12-26T05:04:59.222Z,0
2018-12-26T05:06:09.268Z,0
2018-12-26T05:07:19.312Z,0
2018-12-26T05:08:29.382Z,0
2018-12-26T05:09:39.528Z,0
2018-12-26T05:10:49.588Z,0
2018-12-26T05:11:59.665Z,0
2018-12-26T05:13:09.490Z,0
2018-12-26T05:14:19.529Z,0
2018-12-26T05:15:29.331Z,0
2018-12-26T05:16:39.378Z,0
2018-12-26T05:17:49.156Z,0
2018-12-26T05:18:59.198Z,0
2018-12-26T05:20:09.265Z,0
2018-12-26T05:21:19.144Z,0
2018-12-26T05:22:29.290Z,0
2018-12-26T05:23:39.339Z,0
2018-12-26T05:24:49.201Z,0
2018-12-26T05:25:59.376Z,0
2018-12-26T05:27:09.563Z,0
2018-12-26T05:28:19.663Z,0
2018-12-26T05:29:29.191Z,0
2018-12-26T05:30:39.292Z,0
2018-12-26T05:31:49.326Z,0
2018-12-26T05:32:59.382Z,0
2018-12-26T05:34:09.889Z,0
2018-12-26T05:35:19.925Z,0
2018-12-26T05:36:29.747Z,0
2018-12-26T05:37:39.846Z,0
2018-12-26T05:38:49.386Z,0
2018-12-26T05:39:59.455Z,0
2018-12-26T05:41:09.492Z,0
2018-12-26T05:42:19.566Z,0
2018-12-26T05:43:29.619Z,0
2018-12-26T05:44:39.419Z,0
2018-12-26T05:45:49.484Z,0
2018-12-26T05:46:59.544Z,0
2018-12-26T05:48:10.002Z,0
2018-12-26T05:49:20.140Z,0
2018-12-26T05:50:30.317Z,0
2018-12-26T05:51:40.361Z,0
2018-12-26T05:52:50.410Z,0
2018-12-26T05:54:00.462Z,0
2018-12-26T05:55:10.507Z,0
2018-12-26T05:56:20.294Z,0
2018-12-26T05:57:30.103Z,0
2018-12-26T05:58:40.142Z,0
2018-12-26T05:59:50.219Z,0
2018-12-26T06:01:00.367Z,0
2018-12-26T06:02:10.425Z,0
2018-12-26T06:03:20.481Z,0
2018-12-26T06:04:30.578Z,0
2018-12-26T06:05:40.698Z,0
2018-12-26T06:06:50.552Z,0
2018-12-26T06:08:00.621Z,0
2018-12-26T06:09:10.758Z,0
2018-12-26T06:10:20.860Z,0
2018-12-26T06:11:30.901Z,0
2018-12-26T06:12:40.962Z,0
2018-12-26T06:13:51.020Z,0
2018-12-26T06:15:01.335Z,0
2018-12-26T06:16:11.381Z,0
2018-12-26T06:17:21.172Z,0
2018-12-26T06:18:31.294Z,0
2018-12-26T06:19:41.079Z,0
2018-12-26T06:20:50.887Z,0
2018-12-26T06:22:00.929Z,0
2018-12-26T06:23:10.744Z,0
2018-12-26T06:24:20.782Z,0
2018-12-26T06:25:30.849Z,0
2018-12-26T06:26:40.895Z,0
2018-12-26T06:27:58.581Z,0
2018-12-26T06:29:08.389Z,0
2018-12-26T06:30:18.248Z,0
2018-12-26T06:31:28.314Z,0
2018-12-26T06:32:38.420Z,0
2018-12-26T06:33:48.477Z,0
2018-12-26T06:34:58.546Z,0
2018-12-26T06:36:08.598Z,0
2018-12-26T06:37:18.391Z,0
2018-12-26T06:38:28.450Z,0
2018-12-26T06:39:37.739Z,0
2018-12-26T06:40:47.550Z,0
2018-12-26T06:41:57.203Z,0
2018-12-26T06:43:07.017Z,0
2018-12-26T06:44:17.071Z,0
2018-12-26T06:45:27.143Z,0
2018-12-26T06:46:37.223Z,0
2018-12-26T06:47:47.291Z,0
2018-12-26T06:48:57.091Z,0
2018-12-26T06:50:07.339Z,0
2018-12-26T06:51:17.384Z,0
2018-12-26T06:52:26.922Z,0
2018-12-26T06:53:36.978Z,0
2018-12-26T06:54:47.052Z,0
2018-12-26T06:55:57.134Z,5
2018-12-26T06:57:07.230Z,5
2018-12-26T06:58:17.031Z,5
2018-12-26T06:59:26.933Z,5
2018-12-26T07:00:37.007Z,5
2018-12-26T07:01:46.813Z,5
2018-12-26T07:02:56.359Z,5
2018-12-26T07:04:06.438Z,10
2018-12-26T07:05:16.247Z,10
2018-12-26T07:06:26.302Z,10
2018-12-26T07:07:36.110Z,10
2018-12-26T07:08:46.172Z,10
2018-12-26T07:09:56.214Z,10
2018-12-26T07:11:06.265Z,10
2018-12-26T07:12:16.309Z,10
2018-12-26T07:13:26.131Z,15
2018-12-26T07:14:36.179Z,15
2018-12-26T07:15:46.217Z,15
2018-12-26T07:16:56.403Z,15
2018-12-26T07:18:06.190Z,15
2018-12-26T07:19:16.260Z,15
2018-12-26T07:20:26.323Z,20
2018-12-26T07:21:36.386Z,20
2018-12-26T07:22:45.912Z,20
2018-12-26T07:23:55.690Z,20
2018-12-26T07:25:06.164Z,20
2018-12-26T07:26:16.227Z,20
2018-12-26T07:27:26.033Z,25
2018-12-26T07:28:36.371Z,25
2018-12-26T07:29:46.432Z,25
2018-12-26T07:30:56.225Z,25
2018-12-26T07:32:06.269Z,30
2018-12-26T07:33:16.338Z,30
2018-12-26T07:34:26.143Z,25
2018-12-26T07:35:36.242Z,25
2018-12-26T07:36:45.802Z,25
2018-12-26T07:37:55.852Z,25
2018-12-26T07:39:05.902Z,25
2018-12-26T07:40:16.204Z,25
2018-12-26T07:41:26.373Z,25
2018-12-26T07:42:36.434Z,25
2018-12-26T07:43:46.505Z,25
2018-12-26T07:44:56.377Z,25
2018-12-26T07:46:06.417Z,25
2018-12-26T07:47:16.470Z,25
2018-12-26T07:48:26.541Z,25
2018-12-26T07:49:36.616Z,25
2018-12-26T07:50:46.725Z,30
2018-12-26T07:51:56.517Z,30
2018-12-26T07:53:06.592Z,30
2018-12-26T07:54:16.386Z,35
2018-12-26T07:55:26.178Z,45
2018-12-26T07:56:36.234Z,45
2018-12-26T07:57:46.296Z,50
2018-12-26T07:58:56.364Z,65
2018-12-26T08:00:08.456Z,60
2018-12-26T08:01:18.267Z,70
2018-12-26T08:02:28.332Z,75
2018-12-26T08:03:38.465Z,75
2018-12-26T08:04:48.514Z,75
2018-12-26T08:05:58.565Z,70
2018-12-26T08:07:08.362Z,75
2018-12-26T08:08:18.171Z,80
2018-12-26T08:09:28.267Z,80
2018-12-26T08:10:38.076Z,80
2018-12-26T08:11:48.143Z,85
2018-12-26T08:12:57.937Z,85
2018-12-26T08:14:08.009Z,85
2018-12-26T08:15:20.455Z,85
2018-12-26T08:16:30.287Z,85
2018-12-26T08:17:40.117Z,90
2018-12-26T08:18:50.186Z,85
2018-12-26T08:20:01.599Z,75
2018-12-26T08:21:12.009Z,65
2018-12-26T08:22:22.083Z,65
2018-12-26T08:23:31.874Z,70
2018-12-26T08:24:41.937Z,75
2018-12-26T08:25:51.748Z,75
2018-12-26T08:27:03.461Z,75
2018-12-26T08:28:13.629Z,90
2018-12-26T08:29:23.445Z,90
2018-12-26T08:30:33.497Z,90
2018-12-26T08:31:43.548Z,90
2018-12-26T08:32:53.615Z,85
2018-12-26T08:34:05.834Z,70
2018-12-26T08:35:15.906Z,70
2018-12-26T08:36:25.964Z,75
2018-12-26T08:37:35.753Z,85
2018-12-26T08:38:45.854Z,90
2018-12-26T08:39:55.924Z,95
2018-12-26T08:41:05.989Z,100
2018-12-26T08:42:15.791Z,100
2018-12-26T08:43:25.856Z,100
2018-12-26T08:44:35.904Z,75
2018-12-26T08:45:45.711Z,75
2018-12-26T08:46:54.987Z,80
2018-12-26T08:48:05.151Z,85
2018-12-26T08:49:15.244Z,90
2018-12-26T08:50:25.353Z,90
2018-12-26T08:51:35.413Z,95
2018-12-26T08:52:45.463Z,110
2018-12-26T08:53:55.546Z,110
2018-12-26T08:55:05.836Z,115
2018-12-26T08:56:15.883Z,115
2018-12-26T08:57:25.476Z,115
2018-12-26T08:58:42.451Z,115
2018-12-26T08:59:52.241Z,110
2018-12-26T09:01:02.375Z,110
2018-12-26T09:02:12.487Z,110
2018-12-26T09:03:22.322Z,110
2018-12-26T09:04:32.374Z,105
2018-12-26T09:05:42.609Z,105
2018-12-26T09:06:52.664Z,105
2018-12-26T09:08:02.789Z,100
2018-12-26T09:09:12.848Z,125
2018-12-26T09:10:22.671Z,125
2018-12-26T09:11:32.320Z,115
2018-12-26T09:12:41.879Z,115
2018-12-26T09:13:52.013Z,125
2018-12-26T09:15:01.819Z,125
2018-12-26T09:16:11.873Z,125
2018-12-26T09:17:22.047Z,125
2018-12-26T09:18:32.113Z,130
2018-12-26T09:19:42.174Z,130
2018-12-26T09:20:52.256Z,130
2018-12-26T09:22:02.068Z,130
2018-12-26T09:23:14.046Z,130
2018-12-26T09:24:24.120Z,135
2018-12-26T09:25:33.905Z,135
2018-12-26T09:26:43.730Z,135
2018-12-26T09:27:53.812Z,140
2018-12-26T09:29:03.878Z,135
2018-12-26T09:30:13.699Z,90
2018-12-26T09:31:23.805Z,120
2018-12-26T09:32:33.626Z,100
2018-12-26T09:33:43.670Z,115
2018-12-26T09:34:53.501Z,145
2018-12-26T09:36:03.663Z,105
2018-12-26T09:37:13.740Z,130
2018-12-26T09:38:23.573Z,140
2018-12-26T09:39:33.400Z,150
2018-12-26T09:40:43.462Z,140
2018-12-26T09:41:53.513Z,145
2018-12-26T09:43:05.290Z,145
2018-12-26T09:44:15.343Z,145
2018-12-26T09:45:25.392Z,145
2018-12-26T09:46:35.466Z,140
2018-12-26T09:47:45.530Z,145
2018-12-26T09:48:55.603Z,150
2018-12-26T09:50:05.782Z,145
2018-12-26T09:51:15.869Z,95
2018-12-26T09:52:25.685Z,130
2018-12-26T09:53:35.223Z,115
2018-12-26T09:54:45.064Z,140
2018-12-26T09:55:54.625Z,115
2018-12-26T09:57:04.803Z,90
2018-12-26T09:58:14.866Z,140
2018-12-26T09:59:24.950Z,120
2018-12-26T10:00:34.808Z,140
2018-12-26T10:01:44.893Z,145
2018-12-26T10:02:54.934Z,145
2018-12-26T10:04:06.126Z,145
2018-12-26T10:05:16.187Z,145
2018-12-26T10:06:25.995Z,140
2018-12-26T10:07:37.062Z,140
2018-12-26T10:08:47.221Z,145
2018-12-26T10:09:57.346Z,140
2018-12-26T10:11:09.024Z,140
2018-12-26T10:12:19.111Z,130
2018-12-26T10:13:29.179Z,140
2018-12-26T10:14:39.273Z,125
2018-12-26T10:15:49.371Z,135
2018-12-26T10:16:59.469Z,135
2018-12-26T10:18:09.553Z,135
2018-12-26T10:19:19.631Z,135
2018-12-26T10:20:29.713Z,130
2018-12-26T10:21:39.789Z,135
2018-12-26T10:22:49.900Z,130
2018-12-26T10:23:59.694Z,135
2018-12-26T10:25:10.005Z,135
2018-12-26T10:26:20.315Z,130
2018-12-26T10:27:30.178Z,135
2018-12-26T10:28:40.274Z,130
2018-12-26T10:29:50.356Z,130
2018-12-26T10:31:00.436Z,135
2018-12-26T10:32:10.586Z,135
2018-12-26T10:33:20.382Z,135
2018-12-26T10:34:30.746Z,135
2018-12-26T10:35:40.854Z,140
2018-12-26T10:36:50.927Z,140
2018-12-26T10:38:01.341Z,145
2018-12-26T10:39:11.427Z,145
2018-12-26T10:40:21.544Z,140
2018-12-26T10:41:31.371Z,145
2018-12-26T10:42:41.433Z,150
2018-12-26T10:43:51.508Z,150
2018-12-26T10:45:01.619Z,150
2018-12-26T10:46:11.705Z,150
2018-12-26T10:47:21.768Z,150
2018-12-26T10:48:31.828Z,150
2018-12-26T10:49:41.888Z,155
2018-12-26T10:50:51.688Z,150
2018-12-26T10:52:01.779Z,150
2018-12-26T10:53:11.870Z,150
2018-12-26T10:54:21.993Z,150
2018-12-26T10:55:32.073Z,150
2018-12-26T10:56:42.182Z,150
2018-12-26T10:57:52.253Z,150
2018-12-26T10:59:09.882Z,145
2018-12-26T11:00:20.597Z,145
2018-12-26T11:01:30.728Z,150
2018-12-26T11:02:40.795Z,150
2018-12-26T11:03:50.902Z,150
2018-12-26T11:05:00.739Z,150
2018-12-26T11:06:10.564Z,150
2018-12-26T11:07:20.682Z,150
2018-12-26T11:08:30.502Z,155
2018-12-26T11:09:40.594Z,150
2018-12-26T11:10:50.664Z,155
2018-12-26T11:12:01.403Z,155
2018-12-26T11:13:11.460Z,160
2018-12-26T11:14:21.562Z,155
2018-12-26T11:15:31.450Z,155
2018-12-26T11:16:41.529Z,155
2018-12-26T11:17:51.656Z,135
2018-12-26T11:19:01.502Z,150
2018-12-26T11:20:11.607Z,155
2018-12-26T11:21:21.707Z,155
2018-12-26T11:22:31.268Z,145
2018-12-26T11:23:41.360Z,155
2018-12-26T11:24:51.431Z,155
2018-12-26T11:26:01.520Z,155
2018-12-26T11:27:11.648Z,155
2018-12-26T11:28:21.721Z,155
2018-12-26T11:29:31.557Z,140
2018-12-26T11:30:41.611Z,155
2018-12-26T11:31:50.900Z,155
2018-12-26T11:33:01.436Z,155
2018-12-26T11:34:11.591Z,160
2018-12-26T11:35:21.692Z,155
2018-12-26T11:36:31.772Z,155
2018-12-26T11:37:41.862Z,155
2018-12-26T11:38:51.946Z,155
2018-12-26T11:40:02.016Z,150
2018-12-26T11:41:12.797Z,155
2018-12-26T11:42:22.889Z,155
2018-12-26T11:43:32.966Z,155
2018-12-26T11:44:43.097Z,155
2018-12-26T11:45:52.962Z,155
2018-12-26T11:47:04.209Z,155
2018-12-26T11:48:14.291Z,155
2018-12-26T11:49:24.371Z,155
2018-12-26T11:50:34.451Z,155
2018-12-26T11:51:44.498Z,150
2018-12-26T11:52:54.645Z,155
2018-12-26T11:54:04.730Z,130
2018-12-26T11:55:14.805Z,135
2018-12-26T11:56:24.896Z,150
2018-12-26T11:57:36.832Z,145
2018-12-26T11:58:47.012Z,150
2018-12-26T11:59:57.094Z,150
2018-12-26T12:01:07.156Z,80
2018-12-26T12:02:25.298Z,150
2018-12-26T12:03:35.366Z,150
2018-12-26T12:04:45.433Z,85
2018-12-26T12:05:55.256Z,150
2018-12-26T12:07:06.276Z,145
2018-12-26T12:08:16.426Z,145
2018-12-26T12:09:26.338Z,145
2018-12-26T12:10:36.194Z,145
2018-12-26T12:11:46.337Z,145
2018-12-26T12:12:56.413Z,145
2018-12-26T12:14:06.273Z,145
2018-12-26T12:15:16.129Z,150
2018-12-26T12:16:25.941Z,145
2018-12-26T12:17:35.986Z,145
2018-12-26T12:18:46.055Z,145
2018-12-26T12:19:56.126Z,130
2018-12-26T12:21:06.196Z,155
2018-12-26T12:22:16.009Z,250
2018-12-26T12:23:25.863Z,290
2018-12-26T12:24:35.923Z,305
2018-12-26T12:25:46.003Z,325
2018-12-26T12:26:55.823Z,145
2018-12-26T12:28:05.965Z,145
2018-12-26T12:29:15.825Z,140
2018-12-26T12:30:25.909Z,145
2018-12-26T12:31:35.985Z,145
2018-12-26T12:32:45.906Z,140
2018-12-26T12:33:55.985Z,140
2018-12-26T12:35:06.102Z,140
2018-12-26T12:36:17.885Z,140
2018-12-26T12:37:27.704Z,140
2018-12-26T12:38:37.754Z,140
2018-12-26T12:39:47.879Z,140
2018-12-26T12:40:57.965Z,140
2018-12-26T12:42:08.096Z,135
2018-12-26T12:43:17.647Z,135
2018-12-26T12:44:28.890Z,135
2018-12-26T12:45:38.982Z,135
2018-12-26T12:46:49.034Z,135
2018-12-26T12:47:58.925Z,130
2018-12-26T12:49:09.020Z,135
2018-12-26T12:50:19.087Z,130
2018-12-26T12:51:29.172Z,130
2018-12-26T12:52:39.321Z,130
2018-12-26T12:53:49.391Z,125
2018-12-26T12:54:59.478Z,130
2018-12-26T12:56:16.775Z,125
2018-12-26T12:57:26.883Z,125
2018-12-26T12:58:36.956Z,125
2018-12-26T12:59:54.360Z,120
2018-12-26T13:01:04.439Z,120
2018-12-26T13:02:14.498Z,120
2018-12-26T13:03:24.593Z,115
2018-12-26T13:04:34.652Z,115
2018-12-26T13:05:44.771Z,115
2018-12-26T13:06:54.872Z,115
2018-12-26T13:08:04.938Z,115
2018-12-26T13:09:15.003Z,110
2018-12-26T13:10:25.071Z,110
2018-12-26T13:11:35.130Z,110
2018-12-26T13:12:45.176Z,105
2018-12-26T13:13:55.253Z,105
2018-12-26T13:15:05.349Z,105
2018-12-26T13:16:15.161Z,105
2018-12-26T13:17:25.217Z,100
2018-12-26T13:18:35.420Z,100
2018-12-26T13:19:45.492Z,100
2018-12-26T13:20:55.560Z,100
2018-12-26T13:22:05.626Z,100
2018-12-26T13:23:15.538Z,100
2018-12-26T13:24:25.621Z,100
2018-12-26T13:25:35.681Z,100
2018-12-26T13:26:45.729Z,95
2018-12-26T13:27:55.827Z,95
2018-12-26T13:29:05.911Z,95
2018-12-26T13:30:15.985Z,95
2018-12-26T13:31:25.895Z,95
2018-12-26T13:32:35.977Z,95
2018-12-26T13:33:46.073Z,90
2018-12-26T13:34:56.112Z,90
2018-12-26T13:36:05.919Z,90
2018-12-26T13:37:15.973Z,90
2018-12-26T13:38:26.055Z,85
2018-12-26T13:39:37.625Z,85
2018-12-26T13:40:47.684Z,85
2018-12-26T13:41:57.769Z,85
2018-12-26T13:43:08.284Z,85
2018-12-26T13:44:18.366Z,80
2018-12-26T13:45:28.191Z,80
2018-12-26T13:46:43.454Z,80
2018-12-26T13:47:53.545Z,80
2018-12-26T13:49:03.356Z,75
2018-12-26T13:50:13.422Z,75
2018-12-26T13:51:23.483Z,75
2018-12-26T13:52:33.552Z,75
2018-12-26T13:53:43.627Z,70
2018-12-26T13:54:53.701Z,70
2018-12-26T13:56:03.785Z,70
2018-12-26T13:57:13.878Z,70
2018-12-26T13:58:23.998Z,65
2018-12-26T13:59:33.820Z,65
2018-12-26T14:00:43.903Z,65
2018-12-26T14:01:53.973Z,65
2018-12-26T14:03:04.019Z,60
2018-12-26T14:04:14.077Z,60
2018-12-26T14:05:24.140Z,60
2018-12-26T14:06:34.251Z,55
2018-12-26T14:07:44.053Z,55
2018-12-26T14:08:54.117Z,50
2018-12-26T14:10:04.188Z,50
2018-12-26T14:11:14.243Z,50
2018-12-26T14:12:24.065Z,45
2018-12-26T14:13:34.113Z,45
2018-12-26T14:14:44.157Z,45
2018-12-26T14:15:54.242Z,45
2018-12-26T14:17:03.790Z,45
2018-12-26T14:18:13.719Z,45
2018-12-26T14:19:23.803Z,40
2018-12-26T14:20:33.620Z,40
2018-12-26T14:21:43.718Z,40
2018-12-26T14:22:53.792Z,40
2018-12-26T14:24:03.393Z,35
2018-12-26T14:25:13.464Z,35
2018-12-26T14:26:23.533Z,35
2018-12-26T14:27:38.862Z,30
2018-12-26T14:28:48.943Z,30
2018-12-26T14:29:58.991Z,30
2018-12-26T14:31:09.662Z,25
2018-12-26T14:32:19.722Z,25
2018-12-26T14:33:29.799Z,25
2018-12-26T14:34:39.887Z,25
2018-12-26T14:35:49.730Z,25
2018-12-26T14:36:59.802Z,20
2018-12-26T14:38:09.948Z,20
2018-12-26T14:39:20.001Z,20
2018-12-26T14:40:30.116Z,20
2018-12-26T14:41:39.913Z,20
2018-12-26T14:42:49.710Z,15
2018-12-26T14:43:59.550Z,15
2018-12-26T14:45:09.627Z,15
2018-12-26T14:46:19.700Z,15
2018-12-26T14:47:29.791Z,15
2018-12-26T14:48:39.897Z,15
2018-12-26T14:49:49.967Z,10
2018-12-26T14:50:59.790Z,10
2018-12-26T14:52:09.883Z,10
2018-12-26T14:53:19.792Z,10
2018-12-26T14:54:29.659Z,10
2018-12-26T14:55:39.463Z,10
2018-12-26T14:56:49.544Z,5
2018-12-26T14:57:59.618Z,5
2018-12-26T14:59:09.688Z,5
2018-12-26T15:00:27.226Z,5
2018-12-26T15:01:37.046Z,5
2018-12-26T15:02:47.115Z,5
2018-12-26T15:03:56.957Z,5
2018-12-26T15:05:07.038Z,5
2018-12-26T15:06:17.095Z,0
2018-12-26T15:07:27.232Z,0
2018-12-26T15:08:37.316Z,0
2018-12-26T15:09:47.408Z,0
2018-12-26T15:10:57.485Z,0
2018-12-26T15:12:08.477Z,0
2018-12-26T15:13:18.534Z,0
2018-12-26T15:14:28.612Z,0
2018-12-26T15:15:38.698Z,0
2018-12-26T15:16:48.229Z,0
2018-12-26T15:17:59.727Z,0
2018-12-26T15:19:09.815Z,0
2018-12-26T15:20:19.892Z,0
2018-12-26T15:21:29.991Z,0
2018-12-26T15:22:40.096Z,0
2018-12-26T15:23:50.226Z,0
2018-12-26T15:25:00.191Z,0
2018-12-26T15:26:09.918Z,0
2018-12-26T15:27:19.751Z,0
2018-12-26T15:28:29.585Z,0
2018-12-26T15:29:39.755Z,0
2018-12-26T15:30:49.573Z,0
2018-12-26T15:31:59.647Z,0
2018-12-26T15:33:09.480Z,0
2018-12-26T15:34:19.278Z,0
2018-12-26T15:35:29.354Z,0
2018-12-26T15:36:39.437Z,0
2018-12-26T15:37:49.505Z,0
2018-12-26T15:38:59.330Z,0
2018-12-26T15:40:09.415Z,0
2018-12-26T15:41:19.520Z,0
2018-12-26T15:42:29.580Z,0
2018-12-26T15:43:39.371Z,0
2018-12-26T15:44:49.168Z,0
2018-12-26T15:45:59.349Z,0
2018-12-26T15:47:09.440Z,0
2018-12-26T15:48:19.500Z,0
2018-12-26T15:49:29.556Z,0
2018-12-26T15:50:39.631Z,0
2018-12-26T15:51:49.719Z,0
2018-12-26T15:52:59.794Z,0
2018-12-26T15:54:09.299Z,0
2018-12-26T15:55:19.371Z,0
2018-12-26T15:56:29.192Z,0
2018-12-26T15:57:39.283Z,0
2018-12-26T15:58:49.350Z,0
2018-12-26T15:59:59.439Z,0
2018-12-26T16:01:09.533Z,0
2018-12-26T16:02:19.589Z,0
2018-12-26T16:03:29.747Z,0
2018-12-26T16:04:39.861Z,0
2018-12-26T16:05:49.659Z,0
2018-12-26T16:06:59.481Z,0
2018-12-26T16:08:09.569Z,0
2018-12-26T16:09:19.357Z,0
2018-12-26T16:10:29.414Z,0
2018-12-26T16:11:39.478Z,0
2018-12-26T16:12:49.531Z,0
2018-12-26T16:13:59.601Z,0
2018-12-26T16:15:09.759Z,0
2018-12-26T16:16:19.829Z,0
2018-12-26T16:17:29.654Z,0
2018-12-26T16:18:39.464Z,0
2018-12-26T16:19:49.622Z,0
2018-12-26T16:20:59.691Z,0
2018-12-26T16:22:09.915Z,0
2018-12-26T16:23:20.037Z,0
2018-12-26T16:24:29.865Z,0
2018-12-26T16:25:39.662Z,0
2018-12-26T16:26:49.726Z,0
2018-12-26T16:27:59.795Z,0
2018-12-26T16:29:10.686Z,0
2018-12-26T16:30:20.511Z,0
2018-12-26T16:31:30.074Z,0
2018-12-26T16:32:40.147Z,0
2018-12-26T16:33:50.227Z,0
2018-12-26T16:34:59.788Z,0
2018-12-26T16:36:09.639Z,0
2018-12-26T16:37:19.455Z,0
2018-12-26T16:38:29.255Z,0
2018-12-26T16:39:45.483Z,0
2018-12-26T16:40:55.292Z,0
2018-12-26T16:42:05.371Z,0
2018-12-26T16:43:15.496Z,0
2018-12-26T16:44:25.578Z,0
2018-12-26T16:45:35.471Z,0
2018-12-26T16:46:45.555Z,0
2018-12-26T16:47:55.375Z,0
2018-12-26T16:49:07.133Z,0
2018-12-26T16:50:17.196Z,0
2018-12-26T16:51:27.291Z,0
2018-12-26T16:52:37.379Z,0
2018-12-26T16:53:47.475Z,0
2018-12-26T16:54:57.589Z,0
2018-12-26T16:56:07.638Z,0
2018-12-26T16:57:17.461Z,0
2018-12-26T16:58:27.288Z,0
2018-12-26T16:59:37.119Z,0
2018-12-26T17:00:54.780Z,0
2018-12-26T17:02:05.160Z,0
2018-12-26T17:03:15.248Z,0
2018-12-26T17:04:25.293Z,0
2018-12-26T17:05:34.859Z,0
2018-12-26T17:06:44.706Z,0
2018-12-26T17:07:54.853Z,0
2018-12-26T17:09:05.353Z,0
2018-12-26T17:10:14.912Z,0
2018-12-26T17:11:24.728Z,0
2018-12-26T17:12:34.816Z,0
2018-12-26T17:13:45.909Z,0
2018-12-26T17:14:55.712Z,0
2018-12-26T17:16:05.790Z,0
2018-12-26T17:17:15.853Z,0
2018-12-26T17:18:25.930Z,0
2018-12-26T17:19:36.078Z,0
2018-12-26T17:20:45.906Z,0